Time,TemperatureF,DewpointF,PressureIn,WindDirection,WindDirectionDegrees,WindSpeedMPH,WindSpeedGustMPH,Humidity,HourlyPrecipIn,Conditions,Clouds,dailyrainin,SoftwareType,DateUTC
2013-01-23 00:00:00,20.8,5.5,30.28,ESE,104,0.0,3.0,51,0.00,,---,0.00,VWS V14.01,2013-01-23 06:00:00,
2013-01-23 00:03:00,20.8,5.5,30.29,ESE,107,0.0,5.0,51,0.00,,---,0.00,VWS V14.01,2013-01-23 06:03:00,
2013-01-23 00:08:00,20.8,5.5,30.29,East,82,3.0,4.0,51,0.00,,---,0.00,VWS V14.01,2013-01-23 06:08:00,
2013-01-23 00:13:00,20.8,5.5,30.29,East,80,0.0,4.0,51,0.00,,---,0.00,VWS V14.01,2013-01-23 06:13:00,
2013-01-23 00:18:00,20.6,5.3,30.29,ESE,102,0.0,5.0,51,0.00,,---,0.00,VWS V14.01,2013-01-23 06:18:00,
2013-01-23 00:23:00,20.5,5.7,30.29,ESE,115,3.0,5.0,52,0.00,,---,0.00,VWS V14.01,2013-01-23 06:23:00,
2013-01-23 00:28:00,20.5,5.7,30.29,East,92,0.0,5.0,52,0.00,,---,0.00,VWS V14.01,2013-01-23 06:28:00,
2013-01-23 00:30:00,20.0,6.0,30.28,ENE,67,0.0,5.0,54,0.00,,---,0.00,VWS V14.01,2013-01-23 06:30:00,
2013-01-23 00:33:00,20.6,5.8,30.29,ESE,119,0.0,0.0,52,0.00,,---,0.00,VWS V14.01,2013-01-23 06:33:00,
2013-01-23 00:38:00,20.8,6.0,30.29,East,97,0.0,1.0,52,0.00,,---,0.00,VWS V14.01,2013-01-23 06:38:00,
2013-01-23 00:43:00,21.0,5.7,30.29,ESE,110,0.0,1.0,51,0.00,,---,0.00,VWS V14.01,2013-01-23 06:43:00,
2013-01-23 00:48:00,20.8,5.1,30.29,ESE,109,0.0,1.0,50,0.00,,---,0.00,VWS V14.01,2013-01-23 06:48:00,
2013-01-23 00:53:00,20.6,5.3,30.29,ESE,121,0.0,3.0,51,0.00,,---,0.00,VWS V14.01,2013-01-23 06:53:00,
2013-01-23 00:58:00,20.8,6.0,30.29,East,98,0.0,3.0,52,0.00,,---,0.00,VWS V14.01,2013-01-23 06:58:00,
2013-01-23 01:00:00,19.5,6.4,30.28,East,87,0.0,3.0,56,0.00,,---,0.00,VWS V14.01,2013-01-23 07:00:00,
2013-01-23 01:03:00,20.8,5.5,30.28,ESE,104,0.0,3.0,51,0.00,,---,0.00,VWS V14.01,2013-01-23 07:03:00,
2013-01-23 01:08:00,20.6,5.3,30.28,ENE,71,0.0,1.0,51,0.00,,---,0.00,VWS V14.01,2013-01-23 07:08:00,
2013-01-23 01:13:00,20.5,5.7,30.28,ESE,109,0.0,1.0,52,0.00,,---,0.00,VWS V14.01,2013-01-23 07:13:00,
2013-01-23 01:18:00,20.5,5.7,30.28,ESE,121,0.0,1.0,52,0.00,,---,0.00,VWS V14.01,2013-01-23 07:18:00,
2013-01-23 01:23:00,20.3,5.9,30.28,ESE,105,0.0,4.0,53,0.00,,---,0.00,VWS V14.01,2013-01-23 07:23:00,
2013-01-23 01:28:00,20.2,5.8,30.28,ESE,110,0.0,4.0,53,0.00,,---,0.00,VWS V14.01,2013-01-23 07:28:00,
2013-01-23 01:30:00,19.5,7.1,30.27,ESE,111,0.0,1.0,58,0.00,,---,0.00,VWS V14.01,2013-01-23 07:30:00,
2013-01-23 01:33:00,20.0,6.0,30.28,ENE,68,0.0,5.0,54,0.00,,---,0.00,VWS V14.01,2013-01-23 07:33:00,
2013-01-23 01:38:00,20.0,6.0,30.28,East,99,0.0,3.0,54,0.00,,---,0.00,VWS V14.01,2013-01-23 07:38:00,
2013-01-23 01:43:00,20.0,6.4,30.28,ESE,119,2.0,3.0,55,0.00,,---,0.00,VWS V14.01,2013-01-23 07:43:00,
2013-01-23 01:48:00,19.9,6.8,30.28,East,100,0.0,3.0,56,0.00,,---,0.00,VWS V14.01,2013-01-23 07:48:00,
2013-01-23 01:53:00,19.9,6.8,30.28,East,84,0.0,3.0,56,0.00,,---,0.00,VWS V14.01,2013-01-23 07:53:00,
2013-01-23 01:58:00,19.7,6.6,30.28,ESE,114,0.0,3.0,56,0.00,,---,0.00,VWS V14.01,2013-01-23 07:58:00,
2013-01-23 02:00:00,18.8,7.2,30.26,East,92,0.0,5.0,60,0.00,,---,0.00,VWS V14.01,2013-01-23 08:00:00,
2013-01-23 02:03:00,19.5,6.4,30.28,East,87,0.0,3.0,56,0.00,,---,0.00,VWS V14.01,2013-01-23 08:03:00,
2013-01-23 02:08:00,19.4,6.7,30.28,East,97,0.0,1.0,57,0.00,,---,0.00,VWS V14.01,2013-01-23 08:08:00,
2013-01-23 02:13:00,19.2,6.9,30.28,ESE,111,0.0,1.0,58,0.00,,---,0.00,VWS V14.01,2013-01-23 08:13:00,
2013-01-23 02:18:00,19.2,6.9,30.27,East,99,0.0,1.0,58,0.00,,---,0.00,VWS V14.01,2013-01-23 08:18:00,
2013-01-23 02:23:00,19.4,7.1,30.27,East,100,0.0,1.0,58,0.00,,---,0.00,VWS V14.01,2013-01-23 08:23:00,
2013-01-23 02:28:00,19.5,7.1,30.27,ESE,111,0.0,1.0,58,0.00,,---,0.00,VWS V14.01,2013-01-23 08:28:00,
2013-01-23 02:30:00,18.3,7.1,30.26,East,91,0.0,5.0,61,0.00,,---,0.00,VWS V14.01,2013-01-23 08:30:00,
2013-01-23 02:33:00,19.5,7.1,30.27,ESE,107,0.0,1.0,58,0.00,,---,0.00,VWS V14.01,2013-01-23 08:33:00,
2013-01-23 02:38:00,19.5,7.1,30.27,East,87,0.0,1.0,58,0.00,,---,0.00,VWS V14.01,2013-01-23 08:38:00,
2013-01-23 02:43:00,19.4,7.1,30.27,East,98,3.0,4.0,58,0.00,,---,0.00,VWS V14.01,2013-01-23 08:43:00,
2013-01-23 02:48:00,19.1,6.8,30.26,ENE,76,3.0,5.0,58,0.00,,---,0.00,VWS V14.01,2013-01-23 08:48:00,
2013-01-23 02:53:00,18.8,7.2,30.26,East,95,0.0,5.0,60,0.00,,---,0.00,VWS V14.01,2013-01-23 08:53:00,
2013-01-23 02:58:00,18.8,7.2,30.26,East,88,0.0,5.0,60,0.00,,---,0.00,VWS V14.01,2013-01-23 08:58:00,
2013-01-23 03:00:00,18.0,6.8,30.25,East,91,0.0,2.0,61,0.00,,---,0.00,VWS V14.01,2013-01-23 09:00:00,
2013-01-23 03:03:00,18.8,7.2,30.26,East,96,0.0,5.0,60,0.00,,---,0.00,VWS V14.01,2013-01-23 09:03:00,
2013-01-23 03:08:00,18.6,7.0,30.26,East,92,0.0,1.0,60,0.00,,---,0.00,VWS V14.01,2013-01-23 09:08:00,
2013-01-23 03:13:00,18.8,7.2,30.26,ESE,102,0.0,1.0,60,0.00,,---,0.00,VWS V14.01,2013-01-23 09:13:00,
2013-01-23 03:18:00,18.8,7.2,30.25,ESE,106,0.0,1.0,60,0.00,,---,0.00,VWS V14.01,2013-01-23 09:18:00,
2013-01-23 03:23:00,18.6,7.0,30.25,East,94,2.0,5.0,60,0.00,,---,0.00,VWS V14.01,2013-01-23 09:23:00,
2013-01-23 03:28:00,18.3,6.8,30.25,ESE,118,0.0,5.0,60,0.00,,---,0.00,VWS V14.01,2013-01-23 09:28:00,
2013-01-23 03:30:00,17.7,6.9,30.24,ENE,67,0.0,2.0,62,0.00,,---,0.00,VWS V14.01,2013-01-23 09:30:00,
2013-01-23 03:33:00,18.3,7.1,30.26,East,88,0.0,0.0,61,0.00,,---,0.00,VWS V14.01,2013-01-23 09:33:00,
2013-01-23 03:39:00,18.1,6.9,30.26,ESE,117,0.0,1.0,61,0.00,,---,0.00,VWS V14.01,2013-01-23 09:39:00,
2013-01-23 03:44:00,18.1,6.9,30.26,ENE,69,0.0,2.0,61,0.00,,---,0.00,VWS V14.01,2013-01-23 09:44:00,
2013-01-23 03:49:00,18.0,6.8,30.26,East,86,0.0,2.0,61,0.00,,---,0.00,VWS V14.01,2013-01-23 09:49:00,
2013-01-23 03:54:00,18.1,7.3,30.26,ESE,103,0.0,2.0,62,0.00,,---,0.00,VWS V14.01,2013-01-23 09:54:00,
2013-01-23 03:59:00,18.1,6.9,30.26,ESE,115,0.0,2.0,61,0.00,,---,0.00,VWS V14.01,2013-01-23 09:59:00,
2013-01-23 04:00:00,17.7,6.9,30.24,ENE,78,0.0,1.0,62,0.00,,---,0.00,VWS V14.01,2013-01-23 10:00:00,
2013-01-23 04:04:00,18.0,6.8,30.25,ESE,104,0.0,0.0,61,0.00,,---,0.00,VWS V14.01,2013-01-23 10:04:00,
2013-01-23 04:09:00,17.8,7.0,30.25,East,96,0.0,1.0,62,0.00,,---,0.00,VWS V14.01,2013-01-23 10:09:00,
2013-01-23 04:14:00,17.8,7.0,30.25,East,85,0.0,1.0,62,0.00,,---,0.00,VWS V14.01,2013-01-23 10:14:00,
2013-01-23 04:19:00,17.7,6.9,30.24,East,81,0.0,1.0,62,0.00,,---,0.00,VWS V14.01,2013-01-23 10:19:00,
2013-01-23 04:24:00,17.8,7.3,30.24,ESE,105,0.0,2.0,63,0.00,,---,0.00,VWS V14.01,2013-01-23 10:24:00,
2013-01-23 04:29:00,17.8,7.0,30.24,East,90,0.0,2.0,62,0.00,,---,0.00,VWS V14.01,2013-01-23 10:29:00,
2013-01-23 04:30:00,18.0,7.5,30.23,ESE,114,0.0,1.0,63,0.00,,---,0.00,VWS V14.01,2013-01-23 10:30:00,
2013-01-23 04:34:00,17.7,6.9,30.24,ENE,65,0.0,0.0,62,0.00,,---,0.00,VWS V14.01,2013-01-23 10:34:00,
2013-01-23 04:39:00,17.5,7.1,30.24,ENE,59,0.0,1.0,63,0.00,,---,0.00,VWS V14.01,2013-01-23 10:39:00,
2013-01-23 04:44:00,17.7,7.3,30.24,ESE,119,0.0,1.0,63,0.00,,---,0.00,VWS V14.01,2013-01-23 10:44:00,
2013-01-23 04:49:00,17.7,7.3,30.24,East,90,0.0,1.0,63,0.00,,---,0.00,VWS V14.01,2013-01-23 10:49:00,
2013-01-23 04:54:00,17.8,7.0,30.24,East,86,0.0,1.0,62,0.00,,---,0.00,VWS V14.01,2013-01-23 10:54:00,
2013-01-23 04:59:00,17.7,7.3,30.24,East,84,0.0,1.0,63,0.00,,---,0.00,VWS V14.01,2013-01-23 10:59:00,
2013-01-23 05:00:00,17.8,7.3,30.24,ESE,113,0.0,1.0,63,0.00,,---,0.00,VWS V14.01,2013-01-23 11:00:00,
2013-01-23 05:04:00,17.7,6.9,30.24,East,96,0.0,0.0,62,0.00,,---,0.00,VWS V14.01,2013-01-23 11:04:00,
2013-01-23 05:09:00,17.8,7.3,30.24,East,90,0.0,1.0,63,0.00,,---,0.00,VWS V14.01,2013-01-23 11:09:00,
2013-01-23 05:14:00,17.8,7.3,30.24,ESE,113,0.0,1.0,63,0.00,,---,0.00,VWS V14.01,2013-01-23 11:14:00,
2013-01-23 05:19:00,18.0,7.9,30.24,ESE,109,0.0,1.0,64,0.00,,---,0.00,VWS V14.01,2013-01-23 11:19:00,
2013-01-23 05:24:00,18.0,7.5,30.24,East,92,0.0,1.0,63,0.00,,---,0.00,VWS V14.01,2013-01-23 11:24:00,
2013-01-23 05:29:00,18.0,7.5,30.24,ESE,104,0.0,1.0,63,0.00,,---,0.00,VWS V14.01,2013-01-23 11:29:00,
2013-01-23 05:30:00,17.3,6.9,30.24,ESE,112,0.0,2.0,63,0.00,,---,0.00,VWS V14.01,2013-01-23 11:30:00,
2013-01-23 05:34:00,18.0,7.5,30.23,ESE,113,0.0,0.0,63,0.00,,---,0.00,VWS V14.01,2013-01-23 11:34:00,
2013-01-23 05:39:00,18.1,7.6,30.23,ESE,103,0.0,1.0,63,0.00,,---,0.00,VWS V14.01,2013-01-23 11:39:00,
2013-01-23 05:44:00,18.1,7.3,30.23,ENE,74,0.0,1.0,62,0.00,,---,0.00,VWS V14.01,2013-01-23 11:44:00,
2013-01-23 05:49:00,18.1,7.3,30.24,ENE,67,0.0,1.0,62,0.00,,---,0.00,VWS V14.01,2013-01-23 11:49:00,
2013-01-23 05:54:00,17.8,7.0,30.24,East,81,0.0,1.0,62,0.00,,---,0.00,VWS V14.01,2013-01-23 11:54:00,
2013-01-23 05:59:00,17.8,7.3,30.24,East,97,0.0,1.0,63,0.00,,---,0.00,VWS V14.01,2013-01-23 11:59:00,
2013-01-23 06:00:00,18.0,7.9,30.23,ESE,114,0.0,1.0,64,0.00,,---,0.00,VWS V14.01,2013-01-23 12:00:00,
2013-01-23 06:04:00,17.8,7.3,30.24,ESE,111,0.0,0.0,63,0.00,,---,0.00,VWS V14.01,2013-01-23 12:04:00,
2013-01-23 06:09:00,17.8,7.3,30.24,SE,133,0.0,1.0,63,0.00,,---,0.00,VWS V14.01,2013-01-23 12:09:00,
2013-01-23 06:14:00,17.8,7.3,30.24,ENE,78,0.0,1.0,63,0.00,,---,0.00,VWS V14.01,2013-01-23 12:14:00,
2013-01-23 06:19:00,17.8,7.3,30.25,East,88,0.0,1.0,63,0.00,,---,0.00,VWS V14.01,2013-01-23 12:19:00,
2013-01-23 06:24:00,17.7,6.9,30.25,East,79,0.0,2.0,62,0.00,,---,0.00,VWS V14.01,2013-01-23 12:24:00,
2013-01-23 06:29:00,17.3,6.5,30.25,East,100,0.0,2.0,62,0.00,,---,0.00,VWS V14.01,2013-01-23 12:29:00,
2013-01-23 06:30:00,18.8,7.9,30.23,ESE,114,0.0,1.0,62,0.00,,---,0.00,VWS V14.01,2013-01-23 12:30:00,
2013-01-23 06:34:00,17.3,6.9,30.24,ESE,110,0.0,0.0,63,0.00,,---,0.00,VWS V14.01,2013-01-23 12:34:00,
2013-01-23 06:39:00,17.3,7.2,30.24,ENE,75,0.0,1.0,64,0.00,,---,0.00,VWS V14.01,2013-01-23 12:39:00,
2013-01-23 06:44:00,17.5,7.4,30.24,ESE,114,0.0,1.0,64,0.00,,---,0.00,VWS V14.01,2013-01-23 12:44:00,
2013-01-23 06:49:00,17.7,7.6,30.23,East,90,0.0,1.0,64,0.00,,---,0.00,VWS V14.01,2013-01-23 12:49:00,
2013-01-23 06:54:00,17.8,7.7,30.23,SE,130,0.0,1.0,64,0.00,,---,0.00,VWS V14.01,2013-01-23 12:54:00,
2013-01-23 06:59:00,17.8,7.7,30.23,ESE,121,0.0,1.0,64,0.00,,---,0.00,VWS V14.01,2013-01-23 12:59:00,
2013-01-23 07:00:00,19.9,8.6,30.23,SE,142,0.0,1.0,61,0.00,,---,0.00,VWS V14.01,2013-01-23 13:00:00,
2013-01-23 07:04:00,18.0,7.9,30.23,ESE,116,0.0,1.0,64,0.00,,---,0.00,VWS V14.01,2013-01-23 13:04:00,
2013-01-23 07:09:00,18.1,8.0,30.23,SE,132,0.0,1.0,64,0.00,,---,0.00,VWS V14.01,2013-01-23 13:09:00,
2013-01-23 07:14:00,18.3,7.8,30.23,ESE,115,0.0,1.0,63,0.00,,---,0.00,VWS V14.01,2013-01-23 13:14:00,
2013-01-23 07:19:00,18.4,7.9,30.23,ESE,109,0.0,1.0,63,0.00,,---,0.00,VWS V14.01,2013-01-23 13:19:00,
2013-01-23 07:24:00,18.6,8.1,30.23,SE,128,0.0,1.0,63,0.00,,---,0.00,VWS V14.01,2013-01-23 13:24:00,
2013-01-23 07:29:00,18.8,7.9,30.23,SE,126,0.0,1.0,62,0.00,,---,0.00,VWS V14.01,2013-01-23 13:29:00,
2013-01-23 07:30:00,21.9,8.6,30.22,SSE,153,0.0,2.0,56,0.00,,---,0.00,VWS V14.01,2013-01-23 13:30:00,
2013-01-23 07:34:00,18.8,7.9,30.23,ESE,114,0.0,0.0,62,0.00,,---,0.00,VWS V14.01,2013-01-23 13:34:00,
2013-01-23 07:39:00,18.9,8.1,30.23,ESE,120,0.0,1.0,62,0.00,,---,0.00,VWS V14.01,2013-01-23 13:39:00,
2013-01-23 07:44:00,19.1,7.9,30.23,ESE,109,0.0,1.0,61,0.00,,---,0.00,VWS V14.01,2013-01-23 13:44:00,
2013-01-23 07:49:00,19.2,8.0,30.23,ESE,106,0.0,1.0,61,0.00,,---,0.00,VWS V14.01,2013-01-23 13:49:00,
2013-01-23 07:54:00,19.4,8.2,30.23,East,98,0.0,1.0,61,0.00,,---,0.00,VWS V14.01,2013-01-23 13:54:00,
2013-01-23 07:59:00,19.5,8.3,30.23,East,92,0.0,1.0,61,0.00,,---,0.00,VWS V14.01,2013-01-23 13:59:00,
2013-01-23 08:00:00,24.2,9.6,30.23,SE,146,0.0,1.0,53,0.00,,---,0.00,VWS V14.01,2013-01-23 14:00:00,
2013-01-23 08:04:00,19.9,8.6,30.23,SE,137,0.0,0.0,61,0.00,,---,0.00,VWS V14.01,2013-01-23 14:04:00,
2013-01-23 08:09:00,20.2,8.6,30.23,SE,142,0.0,2.0,60,0.00,,---,0.00,VWS V14.01,2013-01-23 14:09:00,
2013-01-23 08:14:00,20.5,8.5,30.23,SE,135,0.0,2.0,59,0.00,,---,0.00,VWS V14.01,2013-01-23 14:14:00,
2013-01-23 08:19:00,20.6,8.2,30.23,SE,138,0.0,2.0,58,0.00,,---,0.00,VWS V14.01,2013-01-23 14:19:00,
2013-01-23 08:24:00,21.1,8.6,30.23,SE,138,0.0,2.0,58,0.00,,---,0.00,VWS V14.01,2013-01-23 14:24:00,
2013-01-23 08:29:00,21.6,8.7,30.23,SE,132,0.0,2.0,57,0.00,,---,0.00,VWS V14.01,2013-01-23 14:29:00,
2013-01-23 08:30:00,26.9,10.3,30.22,South,181,0.0,2.0,49,0.00,,---,0.00,VWS V14.01,2013-01-23 14:30:00,
2013-01-23 08:34:00,22.1,8.8,30.22,SE,133,0.0,1.0,56,0.00,,---,0.00,VWS V14.01,2013-01-23 14:34:00,
2013-01-23 08:39:00,22.5,9.2,30.22,ESE,123,0.0,1.0,56,0.00,,---,0.00,VWS V14.01,2013-01-23 14:39:00,
2013-01-23 08:44:00,22.9,8.8,30.22,SSE,151,0.0,1.0,54,0.00,,---,0.00,VWS V14.01,2013-01-23 14:44:00,
2013-01-23 08:49:00,23.2,9.0,30.23,SSE,148,0.0,1.0,54,0.00,,---,0.00,VWS V14.01,2013-01-23 14:49:00,
2013-01-23 08:54:00,23.5,8.9,30.23,South,186,0.0,1.0,53,0.00,,---,0.00,VWS V14.01,2013-01-23 14:54:00,
2013-01-23 08:59:00,23.8,9.2,30.23,SE,144,0.0,1.0,53,0.00,,---,0.00,VWS V14.01,2013-01-23 14:59:00,
2013-01-23 09:00:00,28.7,12.4,30.24,SSE,159,0.0,2.0,50,0.00,,---,0.00,VWS V14.01,2013-01-23 15:00:00,
2013-01-23 09:04:00,24.4,9.7,30.23,South,175,0.0,0.0,53,0.00,,---,0.00,VWS V14.01,2013-01-23 15:04:00,
2013-01-23 09:09:00,24.8,9.7,30.23,SSE,148,0.0,1.0,52,0.00,,---,0.00,VWS V14.01,2013-01-23 15:09:00,
2013-01-23 09:14:00,25.4,9.8,30.23,SE,128,0.0,2.0,51,0.00,,---,0.00,VWS V14.01,2013-01-23 15:14:00,
2013-01-23 09:19:00,26.0,10.4,30.22,SE,140,0.0,2.0,51,0.00,,---,0.00,VWS V14.01,2013-01-23 15:19:00,
2013-01-23 09:24:00,26.7,10.6,30.22,SSE,148,0.0,2.0,50,0.00,,---,0.00,VWS V14.01,2013-01-23 15:24:00,
2013-01-23 09:29:00,27.0,10.4,30.22,ESE,107,0.0,2.0,49,0.00,,---,0.00,VWS V14.01,2013-01-23 15:29:00,
2013-01-23 09:30:00,31.5,14.1,30.23,SSW,192,0.0,2.0,48,0.00,,---,0.00,VWS V14.01,2013-01-23 15:30:00,
2013-01-23 09:34:00,26.9,10.3,30.22,South,186,0.0,0.0,49,0.00,,---,0.00,VWS V14.01,2013-01-23 15:34:00,
2013-01-23 09:39:00,27.0,10.9,30.22,SSW,197,0.0,1.0,50,0.00,,---,0.00,VWS V14.01,2013-01-23 15:39:00,
2013-01-23 09:44:00,27.2,11.0,30.22,South,190,0.0,1.0,50,0.00,,---,0.00,VWS V14.01,2013-01-23 15:44:00,
2013-01-23 09:49:00,27.5,11.3,30.23,SSE,148,0.0,1.0,50,0.00,,---,0.00,VWS V14.01,2013-01-23 15:49:00,
2013-01-23 09:54:00,27.8,11.6,30.23,SSE,167,0.0,1.0,50,0.00,,---,0.00,VWS V14.01,2013-01-23 15:54:00,
2013-01-23 09:59:00,28.2,11.5,30.23,SW,223,0.0,2.0,49,0.00,,---,0.00,VWS V14.01,2013-01-23 15:59:00,
2013-01-23 10:00:00,35.0,15.8,30.22,South,175,0.0,3.0,45,0.00,,---,0.00,VWS V14.01,2013-01-23 16:00:00,
2013-01-23 10:04:00,28.8,12.5,30.24,SSE,159,0.0,0.0,50,0.00,,---,0.00,VWS V14.01,2013-01-23 16:04:00,
2013-01-23 10:09:00,29.4,12.6,30.24,SSW,213,0.0,1.0,49,0.00,,---,0.00,VWS V14.01,2013-01-23 16:09:00,
2013-01-23 10:14:00,30.0,12.7,30.24,WSW,255,0.0,1.0,48,0.00,,---,0.00,VWS V14.01,2013-01-23 16:14:00,
2013-01-23 10:19:00,30.1,12.8,30.23,WSW,247,0.0,1.0,48,0.00,,---,0.00,VWS V14.01,2013-01-23 16:19:00,
2013-01-23 10:24:00,30.6,13.7,30.23,SSE,161,0.0,2.0,49,0.00,,---,0.00,VWS V14.01,2013-01-23 16:24:00,
2013-01-23 10:29:00,31.0,13.6,30.23,South,186,0.0,2.0,48,0.00,,---,0.00,VWS V14.01,2013-01-23 16:29:00,
2013-01-23 10:30:00,37.6,17.1,30.21,SW,217,1.0,5.0,43,0.00,,---,0.00,VWS V14.01,2013-01-23 16:30:00,
2013-01-23 10:34:00,31.6,14.2,30.23,SSW,193,1.0,1.0,48,0.00,,---,0.00,VWS V14.01,2013-01-23 16:34:00,
2013-01-23 10:39:00,32.1,14.6,30.23,SW,225,0.0,1.0,48,0.00,,---,0.00,VWS V14.01,2013-01-23 16:39:00,
2013-01-23 10:44:00,32.8,14.8,30.23,South,188,0.0,1.0,47,0.00,,---,0.00,VWS V14.01,2013-01-23 16:44:00,
2013-01-23 10:49:00,33.5,14.9,30.22,SW,215,0.0,1.0,46,0.00,,---,0.00,VWS V14.01,2013-01-23 16:49:00,
2013-01-23 10:53:00,34.1,15.0,30.22,North,360,0.0,3.0,45,0.00,,---,0.00,VWS V14.01,2013-01-23 16:53:00,
2013-01-23 10:58:00,34.7,15.6,30.22,SE,144,0.0,3.0,45,0.00,,---,0.00,VWS V14.01,2013-01-23 16:58:00,
2013-01-23 11:00:00,40.2,17.8,30.19,NW,323,2.0,6.0,40,0.00,,---,0.00,VWS V14.01,2013-01-23 17:00:00,
2013-01-23 11:03:00,35.2,16.0,30.22,North,360,0.0,0.0,45,0.00,,---,0.00,VWS V14.01,2013-01-23 17:03:00,
2013-01-23 11:08:00,35.5,15.8,30.22,South,184,0.0,2.0,44,0.00,,---,0.00,VWS V14.01,2013-01-23 17:08:00,
2013-01-23 11:13:00,35.9,16.1,30.22,SSW,207,0.0,2.0,44,0.00,,---,0.00,VWS V14.01,2013-01-23 17:13:00,
2013-01-23 11:18:00,36.2,16.4,30.22,SSW,208,0.0,2.0,44,0.00,,---,0.00,VWS V14.01,2013-01-23 17:18:00,
2013-01-23 11:23:00,36.8,17.0,30.22,SW,231,2.0,4.0,44,0.00,,---,0.00,VWS V14.01,2013-01-23 17:23:00,
2013-01-23 11:28:00,37.2,16.2,30.22,SSW,212,1.0,4.0,42,0.00,,---,0.00,VWS V14.01,2013-01-23 17:28:00,
2013-01-23 11:30:00,42.2,18.4,30.17,NW,325,1.0,7.0,38,0.00,,---,0.00,VWS V14.01,2013-01-23 17:30:00,
2013-01-23 11:33:00,37.8,17.3,30.21,SSW,198,0.0,1.0,43,0.00,,---,0.00,VWS V14.01,2013-01-23 17:33:00,
2013-01-23 11:38:00,38.2,17.1,30.21,South,190,0.0,4.0,42,0.00,,---,0.00,VWS V14.01,2013-01-23 17:38:00,
2013-01-23 11:43:00,38.5,17.4,30.21,SW,233,3.0,4.0,42,0.00,,---,0.00,VWS V14.01,2013-01-23 17:43:00,
2013-01-23 11:48:00,38.8,17.7,30.20,South,188,0.0,4.0,42,0.00,,---,0.00,VWS V14.01,2013-01-23 17:48:00,
2013-01-23 11:53:00,39.2,18.0,30.20,SSW,211,1.0,6.0,42,0.00,,---,0.00,VWS V14.01,2013-01-23 17:53:00,
2013-01-23 11:58:00,39.8,18.0,30.20,SSW,209,0.0,6.0,41,0.00,,---,0.00,VWS V14.01,2013-01-23 17:58:00,
2013-01-23 12:00:00,42.8,18.4,30.17,West,262,2.0,13.0,37,0.00,,---,0.00,VWS V14.01,2013-01-23 18:00:00,
2013-01-23 12:03:00,40.2,17.8,30.19,WNW,302,0.0,2.0,40,0.00,,---,0.00,VWS V14.01,2013-01-23 18:03:00,
2013-01-23 12:08:00,40.2,17.8,30.19,SW,215,1.0,4.0,40,0.00,,---,0.00,VWS V14.01,2013-01-23 18:08:00,
2013-01-23 12:13:00,40.5,18.1,30.19,SW,228,0.0,4.0,40,0.00,,---,0.00,VWS V14.01,2013-01-23 18:13:00,
2013-01-23 12:18:00,41.2,18.1,30.18,WSW,252,4.0,4.0,39,0.00,,---,0.00,VWS V14.01,2013-01-23 18:18:00,
2013-01-23 12:23:00,41.5,18.4,30.18,WSW,244,3.0,7.0,39,0.00,,---,0.00,VWS V14.01,2013-01-23 18:23:00,
2013-01-23 12:28:00,41.9,18.8,30.18,WSW,249,3.0,7.0,39,0.00,,---,0.00,VWS V14.01,2013-01-23 18:28:00,
2013-01-23 12:30:00,43.6,17.8,30.17,NW,322,6.0,12.0,35,0.00,,---,0.00,VWS V14.01,2013-01-23 18:30:00,
2013-01-23 12:33:00,42.2,18.4,30.17,West,281,5.0,6.0,38,0.00,,---,0.00,VWS V14.01,2013-01-23 18:33:00,
2013-01-23 12:38:00,42.5,18.7,30.17,NW,311,3.0,9.0,38,0.00,,---,0.00,VWS V14.01,2013-01-23 18:38:00,
2013-01-23 12:43:00,42.5,18.7,30.17,WNW,292,0.0,9.0,38,0.00,,---,0.00,VWS V14.01,2013-01-23 18:43:00,
2013-01-23 12:48:00,42.5,18.7,30.17,West,279,4.0,13.0,38,0.00,,---,0.00,VWS V14.01,2013-01-23 18:48:00,
2013-01-23 12:53:00,42.6,18.8,30.17,North,355,2.0,13.0,38,0.00,,---,0.00,VWS V14.01,2013-01-23 18:53:00,
2013-01-23 12:58:00,42.9,19.1,30.17,West,274,12.0,13.0,38,0.00,,---,0.00,VWS V14.01,2013-01-23 18:58:00,
2013-01-23 13:00:00,43.9,18.0,30.17,WNW,283,2.0,9.0,35,0.00,,---,0.00,VWS V14.01,2013-01-23 19:00:00,
2013-01-23 13:03:00,42.8,18.4,30.17,West,274,2.0,4.0,37,0.00,,---,0.00,VWS V14.01,2013-01-23 19:03:00,
2013-01-23 13:08:00,42.9,19.1,30.17,West,271,0.0,6.0,38,0.00,,---,0.00,VWS V14.01,2013-01-23 19:08:00,
2013-01-23 13:13:00,43.2,18.7,30.17,WNW,302,4.0,11.0,37,0.00,,---,0.00,VWS V14.01,2013-01-23 19:13:00,
2013-01-23 13:19:00,43.3,18.2,30.17,WNW,297,1.0,11.0,36,0.00,,---,0.00,VWS V14.01,2013-01-23 19:19:00,
2013-01-23 13:24:00,43.6,18.4,30.17,West,277,2.0,11.0,36,0.00,,---,0.00,VWS V14.01,2013-01-23 19:24:00,
2013-01-23 13:29:00,43.5,18.3,30.17,NW,315,1.0,12.0,36,0.00,,---,0.00,VWS V14.01,2013-01-23 19:29:00,
2013-01-23 13:30:00,44.6,18.7,30.17,West,271,3.0,10.0,35,0.00,,---,0.00,VWS V14.01,2013-01-23 19:30:00,
2013-01-23 13:34:00,43.6,18.4,30.17,WNW,296,3.0,9.0,36,0.00,,---,0.00,VWS V14.01,2013-01-23 19:34:00,
2013-01-23 13:39:00,43.5,17.7,30.17,North,351,4.0,9.0,35,0.00,,---,0.00,VWS V14.01,2013-01-23 19:39:00,
2013-01-23 13:44:00,43.5,18.3,30.17,NW,321,1.0,9.0,36,0.00,,---,0.00,VWS V14.01,2013-01-23 19:44:00,
2013-01-23 13:49:00,43.6,17.8,30.17,WNW,297,4.0,9.0,35,0.00,,---,0.00,VWS V14.01,2013-01-23 19:49:00,
2013-01-23 13:54:00,43.9,18.0,30.17,WNW,291,2.0,9.0,35,0.00,,---,0.00,VWS V14.01,2013-01-23 19:54:00,
2013-01-23 13:59:00,44.1,18.2,30.17,West,260,3.0,9.0,35,0.00,,---,0.00,VWS V14.01,2013-01-23 19:59:00,
2013-01-23 14:00:00,45.4,19.4,30.17,NNW,331,8.0,13.0,35,0.00,,---,0.00,VWS V14.01,2013-01-23 20:00:00,
2013-01-23 14:04:00,44.1,18.9,30.17,WNW,299,2.0,5.0,36,0.00,,---,0.00,VWS V14.01,2013-01-23 20:04:00,
2013-01-23 14:09:00,44.2,19.0,30.17,WNW,292,4.0,6.0,36,0.00,,---,0.00,VWS V14.01,2013-01-23 20:09:00,
2013-01-23 14:14:00,44.2,18.3,30.17,NW,319,3.0,6.0,35,0.00,,---,0.00,VWS V14.01,2013-01-23 20:14:00,
2013-01-23 14:19:00,44.2,19.0,30.17,NW,315,0.0,10.0,36,0.00,,---,0.00,VWS V14.01,2013-01-23 20:19:00,
2013-01-23 14:24:00,44.5,19.2,30.17,NNW,329,2.0,10.0,36,0.00,,---,0.00,VWS V14.01,2013-01-23 20:24:00,
2013-01-23 14:29:00,44.5,19.2,30.17,WNW,291,4.0,10.0,36,0.00,,---,0.00,VWS V14.01,2013-01-23 20:29:00,
2013-01-23 14:30:00,46.2,19.4,30.18,NNW,333,5.0,13.0,34,0.00,,---,0.00,VWS V14.01,2013-01-23 20:30:00,
2013-01-23 14:34:00,44.6,18.7,30.17,West,279,1.0,4.0,35,0.00,,---,0.00,VWS V14.01,2013-01-23 20:34:00,
2013-01-23 14:39:00,44.8,18.8,30.17,WNW,284,0.0,7.0,35,0.00,,---,0.00,VWS V14.01,2013-01-23 20:39:00,
2013-01-23 14:44:00,44.8,19.5,30.17,NW,312,4.0,10.0,36,0.00,,---,0.00,VWS V14.01,2013-01-23 20:44:00,
2013-01-23 14:49:00,44.9,18.9,30.17,NNW,329,5.0,11.0,35,0.00,,---,0.00,VWS V14.01,2013-01-23 20:49:00,
2013-01-23 14:54:00,44.9,18.9,30.17,NW,318,2.0,11.0,35,0.00,,---,0.00,VWS V14.01,2013-01-23 20:54:00,
2013-01-23 14:59:00,45.1,19.1,30.17,North,5,4.0,11.0,35,0.00,,---,0.00,VWS V14.01,2013-01-23 20:59:00,
2013-01-23 15:00:00,45.4,19.4,30.19,WNW,284,3.0,16.0,35,0.00,,---,0.00,VWS V14.01,2013-01-23 21:00:00,
2013-01-23 15:04:00,45.4,19.4,30.17,NW,316,8.0,12.0,35,0.00,,---,0.00,VWS V14.01,2013-01-23 21:04:00,
2013-01-23 15:09:00,45.5,19.5,30.17,WNW,286,3.0,12.0,35,0.00,,---,0.00,VWS V14.01,2013-01-23 21:09:00,
2013-01-23 15:14:00,45.7,19.6,30.17,NNW,327,4.0,12.0,35,0.00,,---,0.00,VWS V14.01,2013-01-23 21:14:00,
2013-01-23 15:19:00,45.8,19.7,30.17,NW,325,3.0,12.0,35,0.00,,---,0.00,VWS V14.01,2013-01-23 21:19:00,
2013-01-23 15:24:00,46.2,20.1,30.17,NW,308,3.0,12.0,35,0.00,,---,0.00,VWS V14.01,2013-01-23 21:24:00,
2013-01-23 15:29:00,46.4,19.6,30.17,NNW,340,3.0,13.0,34,0.00,,---,0.00,VWS V14.01,2013-01-23 21:29:00,
2013-01-23 15:30:00,44.2,19.0,30.18,NE,34,3.0,12.0,36,0.00,,---,0.00,VWS V14.01,2013-01-23 21:30:00,
2013-01-23 15:34:00,46.2,20.1,30.18,NNE,24,1.0,9.0,35,0.00,,---,0.00,VWS V14.01,2013-01-23 21:34:00,
2013-01-23 15:39:00,46.0,19.9,30.18,WNW,299,2.0,14.0,35,0.00,,---,0.00,VWS V14.01,2013-01-23 21:39:00,
2013-01-23 15:44:00,45.8,19.7,30.18,WNW,287,5.0,14.0,35,0.00,,---,0.00,VWS V14.01,2013-01-23 21:44:00,
2013-01-23 15:49:00,45.7,19.6,30.18,NNE,28,1.0,14.0,35,0.00,,---,0.00,VWS V14.01,2013-01-23 21:49:00,
2013-01-23 15:54:00,45.7,19.6,30.18,North,360,0.0,16.0,35,0.00,,---,0.00,VWS V14.01,2013-01-23 21:54:00,
2013-01-23 15:59:00,45.5,19.5,30.18,NW,323,4.0,16.0,35,0.00,,---,0.00,VWS V14.01,2013-01-23 21:59:00,
2013-01-23 16:00:00,43.9,18.7,30.20,North,10,2.0,12.0,36,0.00,,---,0.00,VWS V14.01,2013-01-23 22:00:00,
2013-01-23 16:04:00,45.2,19.2,30.19,NNW,331,1.0,3.0,35,0.00,,---,0.00,VWS V14.01,2013-01-23 22:04:00,
2013-01-23 16:09:00,44.9,18.9,30.19,West,275,2.0,11.0,35,0.00,,---,0.00,VWS V14.01,2013-01-23 22:09:00,
2013-01-23 16:14:00,44.6,19.3,30.19,NNW,329,1.0,11.0,36,0.00,,---,0.00,VWS V14.01,2013-01-23 22:14:00,
2013-01-23 16:19:00,44.5,19.2,30.18,NNW,331,4.0,11.0,36,0.00,,---,0.00,VWS V14.01,2013-01-23 22:19:00,
2013-01-23 16:24:00,44.3,19.0,30.18,NW,318,3.0,11.0,36,0.00,,---,0.00,VWS V14.01,2013-01-23 22:24:00,
2013-01-23 16:29:00,44.3,19.0,30.18,NNE,22,2.0,12.0,36,0.00,,---,0.00,VWS V14.01,2013-01-23 22:29:00,
2013-01-23 16:30:00,41.5,19.0,30.22,NNW,328,0.0,18.0,40,0.00,,---,0.00,VWS V14.01,2013-01-23 22:30:00,
2013-01-23 16:34:00,44.2,19.0,30.18,North,350,2.0,6.0,36,0.00,,---,0.00,VWS V14.01,2013-01-23 22:34:00,
2013-01-23 16:39:00,44.1,18.9,30.18,NNW,336,0.0,9.0,36,0.00,,---,0.00,VWS V14.01,2013-01-23 22:39:00,
2013-01-23 16:44:00,44.1,18.9,30.18,NNE,26,7.0,10.0,36,0.00,,---,0.00,VWS V14.01,2013-01-23 22:44:00,
2013-01-23 16:49:00,44.2,19.0,30.19,North,360,1.0,12.0,36,0.00,,---,0.00,VWS V14.01,2013-01-23 22:49:00,
2013-01-23 16:54:00,44.1,18.9,30.19,NNW,340,0.0,12.0,36,0.00,,---,0.00,VWS V14.01,2013-01-23 22:54:00,
2013-01-23 16:59:00,44.1,18.9,30.19,North,360,1.0,12.0,36,0.00,,---,0.00,VWS V14.01,2013-01-23 22:59:00,
2013-01-23 17:00:00,39.6,19.5,30.25,NNE,26,3.0,13.0,44,0.00,,---,0.00,VWS V14.01,2013-01-23 23:00:00,
2013-01-23 17:04:00,43.9,18.7,30.20,North,349,2.0,2.0,36,0.00,,---,0.00,VWS V14.01,2013-01-23 23:04:00,
2013-01-23 17:10:00,43.5,19.0,30.20,NNW,347,4.0,7.0,37,0.00,,---,0.00,VWS V14.01,2013-01-23 23:10:00,
2013-01-23 17:15:00,43.1,19.2,30.20,North,355,1.0,9.0,38,0.00,,---,0.00,VWS V14.01,2013-01-23 23:15:00,
2013-01-23 17:20:00,42.6,18.8,30.21,North,355,8.0,11.0,38,0.00,,---,0.00,VWS V14.01,2013-01-23 23:20:00,
2013-01-23 17:25:00,42.1,19.0,30.21,NNW,336,5.0,11.0,39,0.00,,---,0.00,VWS V14.01,2013-01-23 23:25:00,
2013-01-23 17:30:00,41.6,18.5,30.21,NNW,334,2.0,11.0,39,0.00,,---,0.00,VWS V14.01,2013-01-23 23:30:00,
2013-01-23 17:35:00,41.3,18.8,30.22,NNW,327,2.0,12.0,40,0.00,,---,0.00,VWS V14.01,2013-01-23 23:35:00,
2013-01-23 17:40:00,40.9,19.0,30.22,NNW,346,2.0,12.0,41,0.00,,---,0.00,VWS V14.01,2013-01-23 23:40:00,
2013-01-23 17:45:00,40.6,19.3,30.22,NW,312,0.0,12.0,42,0.00,,---,0.00,VWS V14.01,2013-01-23 23:45:00,
2013-01-23 17:50:00,40.5,19.2,30.24,NNW,331,0.0,12.0,42,0.00,,---,0.00,VWS V14.01,2013-01-23 23:50:00,
2013-01-23 17:55:00,40.2,19.0,30.24,North,360,2.0,12.0,42,0.00,,---,0.00,VWS V14.01,2013-01-23 23:55:00,
2013-01-23 18:00:00,39.9,19.2,30.24,NE,34,5.0,13.0,43,0.00,,---,0.00,VWS V14.01,2013-01-24 00:00:00,
2013-01-23 18:05:00,39.6,19.5,30.25,North,10,2.0,7.0,44,0.00,,---,0.00,VWS V14.01,2013-01-24 00:05:00,
2013-01-23 18:10:00,39.3,19.8,30.25,NE,46,9.0,10.0,45,0.00,,---,0.00,VWS V14.01,2013-01-24 00:10:00,
2013-01-23 18:15:00,39.1,19.6,30.25,NNW,348,5.0,10.0,45,0.00,,---,0.00,VWS V14.01,2013-01-24 00:15:00,
2013-01-23 18:20:00,38.8,19.8,30.26,NNW,343,5.0,10.0,46,0.00,,---,0.00,VWS V14.01,2013-01-24 00:20:00,
2013-01-23 18:25:00,38.5,19.5,30.26,NNW,341,1.0,10.0,46,0.00,,---,0.00,VWS V14.01,2013-01-24 00:25:00,
2013-01-23 18:30:00,38.2,19.8,30.26,NNW,331,0.0,10.0,47,0.00,,---,0.00,VWS V14.01,2013-01-24 00:30:00,
2013-01-23 18:35:00,37.8,19.4,30.27,North,360,9.0,11.0,47,0.00,,---,0.00,VWS V14.01,2013-01-24 00:35:00,
2013-01-23 18:40:00,37.5,19.1,30.27,NNE,15,2.0,12.0,47,0.00,,---,0.00,VWS V14.01,2013-01-24 00:40:00,
2013-01-23 18:45:00,37.2,18.8,30.27,NW,304,1.0,13.0,47,0.00,,---,0.00,VWS V14.01,2013-01-24 00:45:00,
2013-01-23 18:50:00,36.9,19.1,30.28,NNW,346,2.0,13.0,48,0.00,,---,0.00,VWS V14.01,2013-01-24 00:50:00,
2013-01-23 18:55:00,36.8,19.0,30.28,NNE,17,1.0,13.0,48,0.00,,---,0.00,VWS V14.01,2013-01-24 00:55:00,
2013-01-23 19:00:00,36.3,18.5,30.28,WNW,299,3.0,13.0,48,0.00,,---,0.00,VWS V14.01,2013-01-24 01:00:00,
2013-01-23 19:05:00,35.9,18.6,30.29,North,349,6.0,11.0,49,0.00,,---,0.00,VWS V14.01,2013-01-24 01:05:00,
2013-01-23 19:10:00,35.9,18.6,30.29,North,9,5.0,11.0,49,0.00,,---,0.00,VWS V14.01,2013-01-24 01:10:00,
2013-01-23 19:15:00,35.8,18.5,30.29,North,355,4.0,12.0,49,0.00,,---,0.00,VWS V14.01,2013-01-24 01:15:00,
2013-01-23 19:20:00,35.6,18.3,30.29,NNW,341,1.0,12.0,49,0.00,,---,0.00,VWS V14.01,2013-01-24 01:20:00,
2013-01-23 19:25:00,35.3,18.1,30.29,North,5,3.0,13.0,49,0.00,,---,0.00,VWS V14.01,2013-01-24 01:25:00,
2013-01-23 19:30:00,35.3,17.6,30.29,NNW,332,3.0,13.0,48,0.00,,---,0.00,VWS V14.01,2013-01-24 01:30:00,
2013-01-23 19:35:00,35.2,17.0,30.30,North,355,7.0,13.0,47,0.00,,---,0.00,VWS V14.01,2013-01-24 01:35:00,
2013-01-23 19:40:00,34.9,16.7,30.30,NE,38,5.0,14.0,47,0.00,,---,0.00,VWS V14.01,2013-01-24 01:40:00,
2013-01-23 19:45:00,34.7,16.5,30.30,North,349,10.0,14.0,47,0.00,,---,0.00,VWS V14.01,2013-01-24 01:45:00,
2013-01-23 19:50:00,34.4,16.3,30.31,NNE,22,7.0,14.0,47,0.00,,---,0.00,VWS V14.01,2013-01-24 01:50:00,
2013-01-23 19:55:00,34.3,16.2,30.31,NW,325,5.0,14.0,47,0.00,,---,0.00,VWS V14.01,2013-01-24 01:55:00,
2013-01-23 20:00:00,34.0,15.4,30.31,NNE,18,5.0,19.0,46,0.00,,---,0.00,VWS V14.01,2013-01-24 02:00:00,
2013-01-23 20:05:00,33.5,14.9,30.32,North,360,7.0,18.0,46,0.00,,---,0.00,VWS V14.01,2013-01-24 02:05:00,
2013-01-23 20:10:00,33.4,14.4,30.32,NNW,331,9.0,18.0,45,0.00,,---,0.00,VWS V14.01,2013-01-24 02:10:00,
2013-01-23 20:15:00,33.2,14.2,30.32,North,351,2.0,18.0,45,0.00,,---,0.00,VWS V14.01,2013-01-24 02:15:00,
2013-01-23 20:20:00,32.9,14.4,30.33,North,5,10.0,18.0,46,0.00,,---,0.00,VWS V14.01,2013-01-24 02:20:00,
2013-01-23 20:25:00,32.5,14.0,30.33,NNE,19,12.0,18.0,46,0.00,,---,0.00,VWS V14.01,2013-01-24 02:25:00,
2013-01-23 20:30:00,32.4,14.4,30.33,NE,40,8.0,18.0,47,0.00,,---,0.00,VWS V14.01,2013-01-24 02:30:00,
2013-01-23 20:35:00,32.2,14.2,30.33,NNE,33,10.0,12.0,47,0.00,,---,0.00,VWS V14.01,2013-01-24 02:35:00,
2013-01-23 20:40:00,32.1,14.2,30.33,NNW,346,5.0,13.0,47,0.00,,---,0.00,VWS V14.01,2013-01-24 02:40:00,
2013-01-23 20:45:00,31.8,13.9,30.33,North,11,4.0,13.0,47,0.00,,---,0.00,VWS V14.01,2013-01-24 02:45:00,
2013-01-23 20:50:00,31.8,14.4,30.34,NE,36,5.0,13.0,48,0.00,,---,0.00,VWS V14.01,2013-01-24 02:50:00,
2013-01-23 20:55:00,31.5,14.1,30.34,North,360,14.0,14.0,48,0.00,,---,0.00,VWS V14.01,2013-01-24 02:55:00,
2013-01-23 21:00:00,31.2,13.8,30.34,NNW,342,1.0,14.0,48,0.00,,---,0.00,VWS V14.01,2013-01-24 03:00:00,
2013-01-23 21:05:00,31.0,13.6,30.35,NNW,331,0.0,7.0,48,0.00,,---,0.00,VWS V14.01,2013-01-24 03:05:00,
2013-01-23 21:10:00,31.0,14.1,30.35,North,9,0.0,10.0,49,0.00,,---,0.00,VWS V14.01,2013-01-24 03:10:00,
2013-01-23 21:15:00,30.7,13.4,30.35,NNW,333,3.0,10.0,48,0.00,,---,0.00,VWS V14.01,2013-01-24 03:15:00,
2013-01-23 21:20:00,30.6,13.7,30.35,NNE,18,2.0,11.0,49,0.00,,---,0.00,VWS V14.01,2013-01-24 03:20:00,
2013-01-23 21:25:00,30.3,13.4,30.35,NNE,22,6.0,11.0,49,0.00,,---,0.00,VWS V14.01,2013-01-24 03:25:00,
2013-01-23 21:30:00,30.1,13.3,30.35,North,5,4.0,11.0,49,0.00,,---,0.00,VWS V14.01,2013-01-24 03:30:00,
2013-01-23 21:35:00,30.1,13.7,30.36,NNE,20,2.0,7.0,50,0.00,,---,0.00,VWS V14.01,2013-01-24 03:35:00,
2013-01-23 21:40:00,30.0,13.6,30.36,North,351,5.0,9.0,50,0.00,,---,0.00,VWS V14.01,2013-01-24 03:40:00,
2013-01-23 21:45:00,29.8,13.4,30.36,North,5,7.0,9.0,50,0.00,,---,0.00,VWS V14.01,2013-01-24 03:45:00,
2013-01-23 21:50:00,29.7,13.8,30.37,NNW,339,3.0,9.0,51,0.00,,---,0.00,VWS V14.01,2013-01-24 03:50:00,
2013-01-23 21:55:00,29.5,13.6,30.37,NNE,30,5.0,11.0,51,0.00,,---,0.00,VWS V14.01,2013-01-24 03:55:00,
2013-01-23 22:00:00,29.5,13.6,30.37,North,5,5.0,11.0,51,0.00,,---,0.00,VWS V14.01,2013-01-24 04:00:00,
2013-01-23 22:05:00,29.3,13.4,30.38,NNW,345,4.0,10.0,51,0.00,,---,0.00,VWS V14.01,2013-01-24 04:05:00,
2013-01-23 22:10:00,29.1,13.7,30.38,North,5,5.0,12.0,52,0.00,,---,0.00,VWS V14.01,2013-01-24 04:10:00,
2013-01-23 22:15:00,29.0,14.0,30.38,NNE,28,3.0,12.0,53,0.00,,---,0.00,VWS V14.01,2013-01-24 04:15:00,
2013-01-23 22:20:00,28.8,13.8,30.38,NNW,334,2.0,12.0,53,0.00,,---,0.00,VWS V14.01,2013-01-24 04:20:00,
2013-01-23 22:25:00,28.8,13.8,30.38,NNE,26,0.0,12.0,53,0.00,,---,0.00,VWS V14.01,2013-01-24 04:25:00,
2013-01-23 22:30:00,28.5,13.6,30.38,NNW,334,2.0,12.0,53,0.00,,---,0.00,VWS V14.01,2013-01-24 04:30:00,
2013-01-23 22:35:00,28.4,13.5,30.37,North,360,8.0,9.0,53,0.00,,---,0.00,VWS V14.01,2013-01-24 04:35:00,
2013-01-23 22:40:00,28.1,13.6,30.37,NNW,340,7.0,9.0,54,0.00,,---,0.00,VWS V14.01,2013-01-24 04:40:00,
2013-01-23 22:45:00,27.9,13.0,30.37,NE,34,0.0,10.0,53,0.00,,---,0.00,VWS V14.01,2013-01-24 04:45:00,
2013-01-23 22:50:00,27.8,12.0,30.39,NNE,19,4.0,11.0,51,0.00,,---,0.00,VWS V14.01,2013-01-24 04:50:00,
2013-01-23 22:55:00,27.5,12.2,30.39,North,355,1.0,12.0,52,0.00,,---,0.00,VWS V14.01,2013-01-24 04:55:00,
2013-01-23 23:00:00,27.2,11.9,30.39,NE,35,7.0,12.0,52,0.00,,---,0.00,VWS V14.01,2013-01-24 05:00:00,
2013-01-23 23:10:00,26.7,11.4,30.39,NNE,20,6.0,9.0,52,0.00,,---,0.00,VWS V14.01,2013-01-24 05:10:00,
2013-01-23 23:15:00,26.9,11.6,30.39,NNE,28,5.0,9.0,52,0.00,,---,0.00,VWS V14.01,2013-01-24 05:15:00,
2013-01-23 23:20:00,26.9,11.6,30.40,North,5,1.0,10.0,52,0.00,,---,0.00,VWS V14.01,2013-01-24 05:20:00,
2013-01-23 23:25:00,26.6,11.4,30.40,NNE,13,2.0,10.0,52,0.00,,---,0.00,VWS V14.01,2013-01-24 05:25:00,
2013-01-23 23:30:00,26.3,11.1,30.40,NNE,13,0.0,10.0,52,0.00,,---,0.00,VWS V14.01,2013-01-24 05:30:00,
2013-01-23 23:35:00,26.1,11.3,30.42,North,5,3.0,6.0,53,0.00,,---,0.00,VWS V14.01,2013-01-24 05:35:00,
2013-01-23 23:40:00,25.8,11.0,30.42,North,11,2.0,6.0,53,0.00,,---,0.00,VWS V14.01,2013-01-24 05:40:00,
2013-01-23 23:45:00,25.7,11.4,30.42,North,5,0.0,6.0,54,0.00,,---,0.00,VWS V14.01,2013-01-24 05:45:00,
2013-01-23 23:50:00,25.4,11.1,30.41,North,10,4.0,7.0,54,0.00,,---,0.00,VWS V14.01,2013-01-24 05:50:00,
2013-01-23 23:55:00,25.4,11.5,30.41,North,9,5.0,7.0,55,0.00,,---,0.00,VWS V14.01,2013-01-24 05:55:00,